Terminal Aerodrome Forecast
Issued by NWS

Home | Current Version | Previous Version | Text Only | Print | Product List | Glossary On
Versions: 1 2 3 4 5 6 7 8 9 10 11 12 13 14
747
FTUS45 KRIW 232326
TAFJAC
TAF
KJAC 232326Z 2400/2424 20010KT P6SM SCT090
     FM240200 VRB05KT P6SM SKC
     FM240500 36006KT P6SM SKC
     FM241800 22008KT P6SM SCT120 BKN150
      AMD LTD TO CLD VIS AND WIND=

USA.gov is the U.S. government's official web portal to all federal, state and local government web resources and services.